Hovedside
METAR-TAF:

METAR-TAF

Lufthavner :

Nyslott, Finland

Nyslott lufthavn

breddegrad: 61-57N, lengdegrad: 028-57E, høyde over havet: 95 m

Gjeldene værobservasjon

Denne rapporten ble laget for 23 minutter siden, klokken 05:50 UTC
Vind 11 kt fra Vest, skiftende mellom Sørvest og Vest-nordvest
Temperatur -2°C
Luftfuktighet 69%
Trykk 1012 hPa
Sikt 10 km eller mer
ingen skyer under 1500 m og ingen bygeskyer

METAR: EFSA 240550Z AUTO 27011KT 230V300 CAVOK M02/M07 Q1012

Tid: 08:13 (06:13 UTC)

Varsel

Denne rapporten ble laget for 39 minutter siden, klokken 05:34 UTC
Varsel gyldig fra 24. klokken 06 UTC til 24. klokken 15 UTC
Vind 12 kt fra Vest
Sikt 10 km eller mer
Brutte skyer i en høyde av 4500 ft
Sannsynlighet 30%
fra 24. klokken 07 UTC til 24. klokken 09 UTC
Sikt: 3000 m
lett snø
Midlertidig
fra 24. klokken 10 UTC til 24. klokken 13 UTC
Vind 15 kt fra Vest-nordvest med vindkast opp mot 27 kt

TAF: EFSA 240534Z 2406/2415 28012KT 9999 BKN045 PROB30 2407/2409 3000 -SN TEMPO 2410/2413 30015G27KT

Værobservasjoner og værvarsel for over 4000 flyplasser (METAR- og TAF-rapporter).

Tilgjengelige stasjoner er representert av de røde og gule prikkene på kartet.

Hold musepekeren over prikken for å se navnet på stasjonen.

Klikk så for å se værobservasjoner og -varsler.

For å forandre kartet kan du klikke på den grønne knappen med svart kryss for å zoome inn, på den grønne knappen med strek for å zoome ut, eller på de grønne pilene for å se tilstøtende kart.


METAR-TAF: